createdAt,value
2018-12-22T00:00:49.568Z,97768.11
2018-12-22T00:03:19.035Z,97774.87
2018-12-22T00:05:48.532Z,97775.96
2018-12-22T00:08:18.868Z,97767.09
2018-12-22T00:10:48.534Z,97763.62
2018-12-22T00:14:42.249Z,97758.86
2018-12-22T00:17:12.184Z,97743.82
2018-12-22T00:19:41.566Z,97742.52
2018-12-22T00:22:10.800Z,97747.38
2018-12-22T00:24:40.840Z,97750.09
2018-12-22T00:27:10.236Z,97750.95
2018-12-22T00:29:39.792Z,97757.98
2018-12-22T00:32:09.594Z,97751.85
2018-12-22T00:34:39.027Z,97748.03
2018-12-22T00:37:08.651Z,97748.66
2018-12-22T00:39:38.758Z,97745.70
2018-12-22T00:42:08.297Z,97747.05
2018-12-22T00:44:38.122Z,97743.54
2018-12-22T00:47:07.607Z,97752.45
2018-12-22T00:49:37.117Z,97747.48
2018-12-22T00:52:07.362Z,97738.03
2018-12-22T00:54:36.869Z,97741.77
2018-12-22T00:57:06.534Z,97740.67
2018-12-22T00:59:37.492Z,97741.72
2018-12-22T01:02:08.298Z,97738.47
2018-12-22T01:04:38.220Z,97748.42
2018-12-22T01:07:07.562Z,97752.70
2018-12-22T01:09:36.925Z,97758.86
2018-12-22T01:12:06.770Z,97762.42
2018-12-22T01:14:37.942Z,97759.72
2018-12-22T01:17:07.234Z,97767.83
2018-12-22T01:19:36.489Z,97770.27
2018-12-22T01:22:06.615Z,97773.05
2018-12-22T01:24:36.034Z,97778.52
2018-12-22T01:27:07.079Z,97783.37
2018-12-22T01:29:36.498Z,97779.55
2018-12-22T01:32:06.050Z,97771.75
2018-12-22T01:34:36.625Z,97770.89
2018-12-22T01:37:06.675Z,97765.81
2018-12-22T01:39:35.995Z,97765.55
2018-12-22T01:42:06.239Z,97763.93
2018-12-22T01:44:35.541Z,97759.39
2018-12-22T01:47:05.054Z,97761.31
2018-12-22T01:49:34.711Z,97762.41
2018-12-22T01:52:04.998Z,97760.24
2018-12-22T01:54:34.325Z,97766.22
2018-12-22T01:57:03.584Z,97771.36
2018-12-22T01:59:33.638Z,97769.16
2018-12-22T02:02:03.067Z,97766.95
2018-12-22T02:04:32.407Z,97774.20
2018-12-22T02:07:02.395Z,97782.44
2018-12-22T02:09:32.244Z,97763.78
2018-12-22T02:12:01.727Z,97762.42
2018-12-22T02:14:31.003Z,97764.38
2018-12-22T02:17:00.510Z,97771.08
2018-12-22T02:19:30.218Z,97773.73
2018-12-22T02:21:59.654Z,97766.97
2018-12-22T02:24:28.875Z,97759.77
2018-12-22T02:26:58.241Z,97763.59
2018-12-22T02:29:27.434Z,97767.87
2018-12-22T02:31:56.821Z,97761.44
2018-12-22T02:34:26.880Z,97761.39
2018-12-22T02:36:56.898Z,97759.45
2018-12-22T02:39:26.369Z,97754.14
2018-12-22T02:41:55.710Z,97752.97
2018-12-22T02:44:25.474Z,97747.30
2018-12-22T02:46:54.834Z,97753.28
2018-12-22T02:49:24.266Z,97758.05
2018-12-22T02:51:53.889Z,97756.16
2018-12-22T02:54:23.665Z,97756.70
2018-12-22T02:56:53.813Z,97757.28
2018-12-22T02:59:23.381Z,97750.00
2018-12-22T03:01:52.849Z,97751.92
2018-12-22T03:04:22.411Z,97758.73
2018-12-22T03:06:52.677Z,97757.39
2018-12-22T03:09:22.685Z,97753.82
2018-12-22T03:11:52.070Z,97743.61
2018-12-22T03:14:21.665Z,97755.54
2018-12-22T03:16:51.269Z,97756.58
2018-12-22T03:19:20.652Z,97748.78
2018-12-22T03:21:49.851Z,97768.51
2018-12-22T03:24:19.090Z,97759.16
2018-12-22T03:26:48.337Z,97754.73
2018-12-22T03:29:17.512Z,97758.73
2018-12-22T03:31:46.721Z,97757.62
2018-12-22T03:34:16.043Z,97753.56
2018-12-22T03:36:45.232Z,97751.13
2018-12-22T03:39:15.338Z,97750.21
2018-12-22T03:41:44.774Z,97749.17
2018-12-22T03:44:14.853Z,97750.00
2018-12-22T03:46:44.258Z,97743.24
2018-12-22T03:49:13.520Z,97753.06
2018-12-22T03:51:43.211Z,97748.23
2018-12-22T03:54:12.693Z,97743.88
2018-12-22T03:56:42.025Z,97738.47
2018-12-22T03:59:11.628Z,97739.19
2018-12-22T04:01:41.151Z,97731.84
2018-12-22T04:04:10.559Z,97733.67
2018-12-22T04:06:39.964Z,97738.09
2018-12-22T04:09:09.632Z,97745.47
2018-12-22T04:11:39.081Z,97739.73
2018-12-22T04:14:08.351Z,97750.17
2018-12-22T04:16:37.822Z,97739.84
2018-12-22T04:19:07.355Z,97747.09
2018-12-22T04:21:37.850Z,97748.19
2018-12-22T04:24:07.961Z,97745.97
2018-12-22T04:26:37.325Z,97734.67
2018-12-22T04:29:07.633Z,97727.97
2018-12-22T04:31:37.306Z,97744.50
2018-12-22T04:34:06.615Z,97751.31
2018-12-22T04:36:36.153Z,97748.88
2018-12-22T04:39:07.640Z,97752.87
2018-12-22T04:41:37.127Z,97748.17
2018-12-22T04:44:06.738Z,97753.58
2018-12-22T04:46:36.994Z,97758.76
2018-12-22T04:49:06.377Z,97754.07
2018-12-22T04:51:35.746Z,97759.56
2018-12-22T04:54:05.239Z,97758.27
2018-12-22T04:56:34.734Z,97768.16
2018-12-22T04:59:03.991Z,97756.16
2018-12-22T05:01:33.278Z,97754.63
2018-12-22T05:04:02.779Z,97756.89
2018-12-22T05:06:32.669Z,97764.38
2018-12-22T05:09:02.049Z,97760.31
2018-12-22T05:11:32.915Z,97771.94
2018-12-22T05:14:02.330Z,97773.13
2018-12-22T05:19:34.854Z,97765.62
2018-12-22T05:22:05.135Z,97792.16
2018-12-22T05:24:34.606Z,97767.39
2018-12-22T05:27:04.608Z,97771.34
2018-12-22T05:29:33.873Z,97775.58
2018-12-22T05:32:04.038Z,97779.67
2018-12-22T05:34:33.515Z,97782.95
2018-12-22T05:37:03.292Z,97789.84
2018-12-22T05:39:32.587Z,97789.34
2018-12-22T05:42:01.899Z,97772.77
2018-12-22T05:44:32.160Z,97791.95
2018-12-22T05:47:02.557Z,97780.52
2018-12-22T05:49:32.009Z,97783.20
2018-12-22T05:52:01.509Z,97792.20
2018-12-22T05:54:30.958Z,97795.66
2018-12-22T05:57:01.260Z,97800.20
2018-12-22T05:59:31.031Z,97800.38
2018-12-22T06:02:00.449Z,97808.80
2018-12-22T06:04:29.868Z,97814.57
2018-12-22T06:06:59.315Z,97803.75
2018-12-22T06:09:28.665Z,97811.38
2018-12-22T06:11:58.284Z,97802.28
2018-12-22T06:14:27.584Z,97798.72
2018-12-22T06:16:57.021Z,97798.36
2018-12-22T06:19:26.615Z,97807.03
2018-12-22T06:21:56.213Z,97810.17
2018-12-22T06:24:25.724Z,97817.80
2018-12-22T06:26:55.231Z,97818.01
2018-12-22T06:29:24.801Z,97807.25
2018-12-22T06:31:54.116Z,97819.75
2018-12-22T06:34:23.395Z,97818.39
2018-12-22T06:36:52.715Z,97827.79
2018-12-22T06:39:22.730Z,97841.95
2018-12-22T06:41:52.130Z,97841.09
2018-12-22T06:44:22.059Z,97849.34
2018-12-22T06:46:51.351Z,97857.01
2018-12-22T06:49:20.915Z,97862.50
2018-12-22T06:51:50.744Z,97862.39
2018-12-22T06:54:20.101Z,97867.67
2018-12-22T06:56:50.354Z,97874.74
2018-12-22T06:59:20.621Z,97875.52
2018-12-22T07:01:50.735Z,97890.44
2018-12-22T07:04:20.813Z,97900.05
2018-12-22T07:06:50.954Z,97913.64
2018-12-22T07:09:20.334Z,97906.66
2018-12-22T07:11:51.440Z,97921.53
2018-12-22T07:14:22.755Z,97917.52
2018-12-22T07:16:52.862Z,97927.03
2018-12-22T07:19:23.030Z,97928.34
2018-12-22T07:21:53.350Z,97945.37
2018-12-22T07:24:24.267Z,97936.22
2018-12-22T07:26:53.894Z,97934.60
2018-12-22T07:29:24.010Z,97945.72
2018-12-22T07:31:53.958Z,97942.66
2018-12-22T07:34:24.656Z,97954.56
2018-12-22T07:36:54.336Z,97959.30
2018-12-22T07:39:24.500Z,97968.80
2018-12-22T07:41:54.079Z,97974.21
2018-12-22T07:44:23.884Z,97976.15
2018-12-22T07:46:54.511Z,97973.98
2018-12-22T07:49:24.266Z,97975.30
2018-12-22T07:51:53.824Z,97978.27
2018-12-22T07:54:23.816Z,97989.94
2018-12-22T07:56:54.252Z,97993.27
2018-12-22T07:59:24.179Z,97991.38
2018-12-22T08:01:53.569Z,97995.73
2018-12-22T08:04:23.806Z,98004.98
2018-12-22T08:06:53.290Z,98018.50
2018-12-22T08:09:22.938Z,98026.61
2018-12-22T08:11:53.124Z,98031.92
2018-12-22T08:14:23.408Z,98042.24
2018-12-22T08:16:53.679Z,98027.64
2018-12-22T08:19:23.061Z,98019.92
2018-12-22T08:21:52.830Z,98038.84
2018-12-22T08:24:22.305Z,98055.25
2018-12-22T08:26:52.458Z,98058.16
2018-12-22T08:29:22.589Z,98051.97
2018-12-22T08:31:52.786Z,98051.20
2018-12-22T08:34:22.305Z,98049.00
2018-12-22T08:36:54.407Z,98049.16
2018-12-22T08:39:23.524Z,98047.45
2018-12-22T08:41:53.194Z,98056.17
2018-12-22T08:44:22.795Z,98072.90
2018-12-22T08:46:52.061Z,98078.81
2018-12-22T08:49:21.403Z,98088.36
2018-12-22T08:51:50.896Z,98097.86
2018-12-22T08:54:20.694Z,98097.20
2018-12-22T08:56:50.076Z,98104.45
2018-12-22T08:59:19.774Z,98101.55
2018-12-22T09:01:49.279Z,98112.41
2018-12-22T09:04:19.780Z,98119.50
2018-12-22T09:06:49.268Z,98132.27
2018-12-22T09:09:19.826Z,98140.65
2018-12-22T09:11:50.176Z,98142.88
2018-12-22T09:14:19.694Z,98140.48
2018-12-22T09:16:49.746Z,98142.09
2018-12-22T09:19:19.373Z,98157.33
2018-12-22T09:21:48.809Z,98162.16
2018-12-22T09:24:18.214Z,98163.71
2018-12-22T09:26:47.565Z,98166.34
2018-12-22T09:29:17.632Z,98168.81
2018-12-22T09:31:47.800Z,98168.45
2018-12-22T09:34:17.995Z,98181.81
2018-12-22T09:36:48.838Z,98193.02
2018-12-22T09:39:18.330Z,98194.91
2018-12-22T09:41:48.535Z,98200.34
2018-12-22T09:44:17.879Z,98197.73
2018-12-22T09:46:47.240Z,98212.98
2018-12-22T09:49:17.205Z,98213.84
2018-12-22T09:51:47.421Z,98206.85
2018-12-22T09:54:18.620Z,98220.48
2018-12-22T09:56:48.724Z,98217.75
2018-12-22T09:59:18.373Z,98215.64
2018-12-22T10:01:48.642Z,98219.61
2018-12-22T10:04:19.572Z,98222.69
2018-12-22T10:06:49.145Z,98236.38
2018-12-22T10:09:18.800Z,98246.44
2018-12-22T10:11:48.412Z,98267.11
2018-12-22T10:14:18.300Z,98242.54
2018-12-22T10:16:47.586Z,98246.41
2018-12-22T10:19:17.665Z,98255.02
2018-12-22T10:21:48.529Z,98253.91
2018-12-22T10:24:18.392Z,98252.83
2018-12-22T10:26:49.559Z,98244.20
2018-12-22T10:29:19.589Z,98236.28
2018-12-22T10:31:50.003Z,98240.30
2018-12-22T10:34:19.898Z,98241.02
2018-12-22T10:36:50.289Z,98246.72
2018-12-22T10:39:20.610Z,98240.80
2018-12-22T10:41:50.649Z,98232.41
2018-12-22T10:44:20.630Z,98237.12
2018-12-22T10:46:50.969Z,98243.62
2018-12-22T10:49:21.258Z,98253.21
2018-12-22T10:51:52.397Z,98251.41
2018-12-22T10:54:22.837Z,98247.59
2018-12-22T10:56:53.194Z,98243.53
2018-12-22T10:59:23.522Z,98239.96
2018-12-22T11:01:54.654Z,98249.91
2018-12-22T11:04:25.645Z,98253.55
2018-12-22T11:06:55.505Z,98240.55
2018-12-22T11:09:25.889Z,98235.64
2018-12-22T11:11:56.824Z,98248.16
2018-12-22T11:14:26.920Z,98250.26
2018-12-22T11:16:57.293Z,98245.11
2018-12-22T11:19:27.600Z,98255.00
2018-12-22T11:21:57.860Z,98253.14
2018-12-22T11:24:28.844Z,98254.91
2018-12-22T11:26:58.884Z,98252.88
2018-12-22T11:29:29.054Z,98245.70
2018-12-22T11:31:58.514Z,98241.38
2018-12-22T11:34:29.494Z,98244.30
2018-12-22T11:36:58.873Z,98250.72
2018-12-22T11:39:28.940Z,98248.41
2018-12-22T11:41:59.208Z,98253.50
2018-12-22T11:44:28.836Z,98257.21
2018-12-22T11:47:02.618Z,98260.34
2018-12-22T11:49:35.389Z,98252.55
2018-12-22T11:52:05.016Z,98264.44
2018-12-22T11:54:34.846Z,98267.61
2018-12-22T11:57:04.550Z,98272.08
2018-12-22T11:59:34.065Z,98269.69
2018-12-22T12:02:09.461Z,98278.98
2018-12-22T12:04:34.982Z,98272.25
2018-12-22T12:07:04.723Z,98283.84
2018-12-22T12:09:34.210Z,98287.76
2018-12-22T12:12:03.525Z,98288.27
2018-12-22T12:14:33.541Z,98296.89
2018-12-22T12:17:16.603Z,98293.70
2018-12-22T12:19:46.556Z,98302.86
2018-12-22T12:22:16.996Z,98311.31
2018-12-22T12:24:47.333Z,98312.81
2018-12-22T12:27:17.056Z,98315.52
2018-12-22T12:29:46.609Z,98323.20
2018-12-22T12:32:16.730Z,98311.79
2018-12-22T12:34:47.000Z,98312.42
2018-12-22T12:37:16.449Z,98301.45
2018-12-22T12:39:45.936Z,98304.16
2018-12-22T12:42:15.516Z,98302.98
2018-12-22T12:44:45.000Z,98300.47
2018-12-22T12:47:15.537Z,98307.49
2018-12-22T12:49:44.948Z,98316.95
2018-12-22T12:52:15.267Z,98321.52
2018-12-22T12:54:44.596Z,98329.78
2018-12-22T12:57:13.929Z,98327.73
2018-12-22T12:59:43.729Z,98327.86
2018-12-22T13:02:13.158Z,98329.99
2018-12-22T13:04:42.694Z,98319.90
2018-12-22T13:07:12.575Z,98326.20
2018-12-22T13:09:43.067Z,98322.51
2018-12-22T13:12:16.905Z,98321.39
2018-12-22T13:14:48.752Z,98319.92
2018-12-22T13:17:18.352Z,98317.75
2018-12-22T13:19:48.772Z,98317.45
2018-12-22T13:22:18.636Z,98319.41
2018-12-22T13:24:48.860Z,98328.76
2018-12-22T13:27:18.260Z,98332.99
2018-12-22T13:29:47.726Z,98341.28
2018-12-22T13:32:17.422Z,98325.94
2018-12-22T13:34:48.637Z,98336.36
2018-12-22T13:37:18.102Z,98335.28
2018-12-22T13:39:48.045Z,98333.15
2018-12-22T13:42:18.205Z,98330.32
2018-12-22T13:44:47.770Z,98335.38
2018-12-22T13:47:17.540Z,98343.21
2018-12-22T13:49:49.681Z,98349.16
2018-12-22T13:52:20.285Z,98352.19
2018-12-22T13:54:50.235Z,98353.69
2018-12-22T13:57:19.520Z,98350.14
2018-12-22T13:59:48.809Z,98354.77
2018-12-22T14:02:18.538Z,98358.41
2018-12-22T14:04:48.251Z,98368.38
2018-12-22T14:07:17.542Z,98381.95
2018-12-22T14:09:47.121Z,98387.64
2018-12-22T14:12:17.032Z,98383.66
2018-12-22T14:14:46.867Z,98392.61
2018-12-22T14:17:22.136Z,98388.55
2018-12-22T14:19:56.352Z,98386.73
2018-12-22T14:22:26.352Z,98377.87
2018-12-22T14:24:56.651Z,98394.84
2018-12-22T14:27:26.291Z,98392.53
2018-12-22T14:29:56.037Z,98389.06
2018-12-22T14:32:26.998Z,98389.77
2018-12-22T14:35:10.225Z,98378.77
2018-12-22T14:37:40.377Z,98394.73
2018-12-22T14:40:11.590Z,98396.70
2018-12-22T14:42:41.682Z,98398.87
2018-12-22T14:45:12.818Z,98417.45
2018-12-22T14:47:42.185Z,98413.22
2018-12-22T14:50:12.281Z,98418.30
2018-12-22T14:52:44.362Z,98421.09
2018-12-22T14:55:14.807Z,98422.77
2018-12-22T14:57:53.417Z,98420.61
2018-12-22T15:00:23.025Z,98421.75
2018-12-22T15:02:52.808Z,98418.75
2018-12-22T15:05:22.997Z,98420.07
2018-12-22T15:07:53.405Z,98424.45
2018-12-22T15:10:22.690Z,98420.25
2018-12-22T15:12:52.706Z,98415.37
2018-12-22T15:15:22.233Z,98409.41
2018-12-22T15:17:51.668Z,98410.56
2018-12-22T15:20:24.500Z,98412.77
2018-12-22T15:22:54.229Z,98422.80
2018-12-22T15:25:23.708Z,98425.03
2018-12-22T15:27:54.104Z,98427.77
2018-12-22T15:30:24.039Z,98437.50
2018-12-22T15:32:55.003Z,98428.91
2018-12-22T15:35:24.590Z,98425.13
2018-12-22T15:37:54.027Z,98429.70
2018-12-22T15:40:23.754Z,98429.20
2018-12-22T15:42:53.298Z,98432.70
2018-12-22T15:45:23.360Z,98432.70
2018-12-22T15:47:53.488Z,98439.44
2018-12-22T15:50:25.610Z,98441.11
2018-12-22T15:52:56.060Z,98449.73
2018-12-22T15:55:26.091Z,98440.91
2018-12-22T15:57:55.505Z,98447.39
2018-12-22T16:00:25.055Z,98450.61
2018-12-22T16:02:54.744Z,98440.08
2018-12-22T16:05:25.087Z,98446.27
2018-12-22T16:07:54.927Z,98448.45
2018-12-22T16:10:24.355Z,98445.77
2018-12-22T16:12:53.785Z,98463.59
2018-12-22T16:15:23.726Z,98476.01
2018-12-22T16:17:53.286Z,98484.63
2018-12-22T16:20:24.181Z,98474.42
2018-12-22T16:22:58.187Z,98476.02
2018-12-22T16:25:29.674Z,98480.34
2018-12-22T16:28:06.493Z,98496.23
2018-12-22T16:30:42.493Z,98493.54
2018-12-22T16:33:11.956Z,98493.00
2018-12-22T16:35:41.771Z,98508.64
2018-12-22T16:38:11.970Z,98505.14
2018-12-22T16:40:42.240Z,98507.55
2018-12-22T16:43:13.405Z,98510.52
2018-12-22T16:45:46.643Z,98516.72
2018-12-22T16:48:16.407Z,98522.07
2018-12-22T16:50:46.962Z,98529.58
2018-12-22T16:53:16.292Z,98530.09
2018-12-22T16:55:47.447Z,98525.75
2018-12-22T16:58:26.476Z,98532.72
2018-12-22T17:02:10.180Z,98534.59
2018-12-22T17:04:39.891Z,98521.39
2018-12-22T17:07:10.000Z,98524.64
2018-12-22T17:09:39.563Z,98524.16
2018-12-22T17:12:09.447Z,98531.16
2018-12-22T17:14:38.868Z,98537.89
2018-12-22T17:17:09.079Z,98543.03
2018-12-22T17:19:38.716Z,98540.82
2018-12-22T17:22:12.133Z,98556.17
2018-12-22T17:24:50.527Z,98553.98
2018-12-22T17:27:20.148Z,98557.52
2018-12-22T17:29:49.633Z,98563.73
2018-12-22T17:32:19.807Z,98568.89
2018-12-22T17:34:50.068Z,98570.78
2018-12-22T17:37:19.883Z,98572.42
2018-12-22T17:39:53.491Z,98574.59
2018-12-22T17:42:21.684Z,98579.45
2018-12-22T17:44:51.158Z,98571.13
2018-12-22T17:47:20.659Z,98578.16
2018-12-22T17:49:50.388Z,98575.20
2018-12-22T17:52:19.704Z,98577.62
2018-12-22T17:54:49.416Z,98579.78
2018-12-22T17:57:19.053Z,98584.11
2018-12-22T17:59:48.547Z,98587.62
2018-12-22T18:02:17.959Z,98581.97
2018-12-22T18:04:47.611Z,98582.50
2018-12-22T18:07:17.983Z,98574.41
2018-12-22T18:09:48.023Z,98582.49
2018-12-22T18:12:17.769Z,98589.78
2018-12-22T18:14:47.455Z,98596.79
2018-12-22T18:17:16.952Z,98596.25
2018-12-22T18:19:46.798Z,98594.91
2018-12-22T18:22:16.276Z,98600.27
2018-12-22T18:24:46.201Z,98594.89
2018-12-22T18:27:15.592Z,98589.78
2018-12-22T18:29:45.482Z,98590.59
2018-12-22T18:32:15.095Z,98602.70
2018-12-22T18:34:45.383Z,98611.59
2018-12-22T18:37:15.951Z,98602.98
2018-12-22T18:39:45.506Z,98592.19
2018-12-22T18:42:15.686Z,98590.03
2018-12-22T18:44:45.078Z,98590.04
2018-12-22T18:47:14.900Z,98595.96
2018-12-22T18:49:45.198Z,98600.54
2018-12-22T18:52:15.093Z,98597.03
2018-12-22T18:54:44.660Z,98601.89
2018-12-22T18:57:14.961Z,98603.49
2018-12-22T18:59:44.452Z,98596.25
2018-12-22T19:02:14.256Z,98587.62
2018-12-22T19:04:43.983Z,98594.08
2018-12-22T19:07:13.695Z,98605.66
2018-12-22T19:09:43.644Z,98597.59
2018-12-22T19:12:16.634Z,98606.20
2018-12-22T19:14:54.714Z,98604.59
2018-12-22T19:17:24.608Z,98607.83
2018-12-22T19:19:54.534Z,98612.41
2018-12-22T19:22:24.882Z,98615.09
2018-12-22T19:24:54.557Z,98616.18
2018-12-22T19:27:24.144Z,98609.45
2018-12-22T19:29:53.445Z,98616.97
2018-12-22T19:32:23.559Z,98628.55
2018-12-22T19:34:53.827Z,98629.90
2018-12-22T19:37:23.472Z,98631.24
2018-12-22T19:39:56.128Z,98635.30
2018-12-22T19:42:25.804Z,98636.37
2018-12-22T19:44:56.473Z,98637.46
2018-12-22T19:47:26.732Z,98639.05
2018-12-22T19:49:56.938Z,98644.45
2018-12-22T19:52:26.633Z,98656.81
2018-12-22T19:54:57.001Z,98655.45
2018-12-22T19:57:26.602Z,98658.67
2018-12-22T19:59:56.744Z,98652.79
2018-12-22T20:02:28.076Z,98654.40
2018-12-22T20:04:58.624Z,98651.70
2018-12-22T20:07:28.268Z,98652.80
2018-12-22T20:09:57.933Z,98649.53
2018-12-22T20:12:27.837Z,98658.42
2018-12-22T20:14:57.753Z,98659.49
2018-12-22T20:17:27.231Z,98657.33
2018-12-22T20:19:57.403Z,98652.47
2018-12-22T20:22:27.567Z,98652.22
2018-12-22T20:24:57.725Z,98665.66
2018-12-22T20:27:27.864Z,98663.52
2018-12-22T20:29:57.637Z,98662.98
2018-12-22T20:32:27.279Z,98658.67
2018-12-22T20:34:57.733Z,98656.23
2018-12-22T20:37:27.197Z,98657.05
2018-12-22T20:39:57.073Z,98653.00
2018-12-22T20:42:27.043Z,98655.96
2018-12-22T20:44:57.296Z,98653.25
2018-12-22T20:47:27.178Z,98654.58
2018-12-22T20:49:56.987Z,98663.17
2018-12-22T20:52:30.177Z,98655.59
2018-12-22T20:55:00.513Z,98671.69
2018-12-22T20:57:30.593Z,98668.69
2018-12-22T21:00:00.791Z,98671.58
2018-12-22T21:02:30.862Z,98676.94
2018-12-22T21:05:01.086Z,98672.59
2018-12-22T21:07:32.262Z,98678.26
2018-12-22T21:10:02.480Z,98685.28
2018-12-22T21:12:32.739Z,98684.52
2018-12-22T21:15:03.012Z,98683.95
2018-12-22T21:17:32.923Z,98686.88
2018-12-22T21:20:03.292Z,98686.13
2018-12-22T21:22:33.473Z,98685.06
2018-12-22T21:25:03.763Z,98682.13
2018-12-22T21:27:33.853Z,98689.13
2018-12-22T21:30:03.551Z,98694.78
2018-12-22T21:32:34.188Z,98690.78
2018-12-22T21:35:08.202Z,98696.20
2018-12-22T21:37:39.278Z,98711.54
2018-12-22T21:40:09.468Z,98717.47
2018-12-22T21:42:39.243Z,98717.72
2018-12-22T21:45:09.100Z,98726.34
2018-12-22T21:47:39.027Z,98723.65
2018-12-22T21:50:09.251Z,98712.09
2018-12-22T21:52:39.815Z,98715.08
2018-12-22T21:55:09.834Z,98712.95
2018-12-22T21:57:40.114Z,98718.89
2018-12-22T22:00:09.573Z,98721.04
2018-12-22T22:02:40.423Z,98715.69
2018-12-22T22:05:10.543Z,98724.83
2018-12-22T22:07:40.609Z,98733.45
2018-12-22T22:10:10.412Z,98723.71
2018-12-22T22:12:40.783Z,98711.61
2018-12-22T22:15:11.364Z,98719.97
2018-12-22T22:17:41.594Z,98718.36
2018-12-22T22:20:11.788Z,98715.67
2018-12-22T22:22:41.455Z,98712.98
2018-12-22T22:25:11.285Z,98724.29
2018-12-22T22:27:42.438Z,98724.03
2018-12-22T22:30:12.446Z,98724.29
2018-12-22T22:32:42.656Z,98729.67
2018-12-22T22:35:13.943Z,98729.13
2018-12-22T22:37:44.001Z,98736.64
2018-12-22T22:40:14.314Z,98753.57
2018-12-22T22:42:44.474Z,98752.22
2018-12-22T22:45:14.765Z,98750.08
2018-12-22T22:47:44.995Z,98748.19
2018-12-22T22:50:14.950Z,98747.09
2018-12-22T22:52:44.568Z,98755.42
2018-12-22T22:55:14.544Z,98753.45
2018-12-22T22:57:44.194Z,98755.32
2018-12-22T23:00:19.460Z,98758.83
2018-12-22T23:02:49.219Z,98769.04
2018-12-22T23:05:19.055Z,98771.19
2018-12-22T23:07:48.581Z,98769.09
2018-12-22T23:10:19.145Z,98773.74
2018-12-22T23:12:48.808Z,98771.61
2018-12-22T23:15:18.277Z,98775.68
2018-12-22T23:17:47.746Z,98774.87
2018-12-22T23:20:18.689Z,98771.93
2018-12-22T23:22:48.579Z,98776.14
2018-12-22T23:25:17.988Z,98782.33
2018-12-22T23:31:13.640Z,98799.00
2018-12-22T23:33:43.843Z,98800.62
2018-12-22T23:36:13.738Z,98796.58
2018-12-22T23:38:43.229Z,98792.80
2018-12-22T23:41:12.704Z,98791.23
2018-12-22T23:43:42.163Z,98790.73
2018-12-22T23:46:11.935Z,98794.19
2018-12-22T23:48:42.337Z,98800.36
2018-12-22T23:51:12.608Z,98790.38
2018-12-22T23:53:42.219Z,98781.21
2018-12-22T23:56:11.973Z,98786.00
2018-12-22T23:58:43.047Z,98782.20
